sensor_id;sensor_type;location;lat;lon;timestamp;pressure;altitude;pressure_sealevel;temperature;humidity
14612;BME280;7392;52.078;11.650;2023-02-16T00:01:15;101656.56;;;-0.76;100.00
14612;BME280;7392;52.078;11.650;2023-02-16T00:03:42;101660.88;;;-0.77;100.00
14612;BME280;7392;52.078;11.650;2023-02-16T00:06:12;101666.19;;;-0.75;100.00
14612;BME280;7392;52.078;11.650;2023-02-16T00:08:45;101673.00;;;-0.77;100.00
14612;BME280;7392;52.078;11.650;2023-02-16T00:11:17;101679.94;;;-0.78;100.00
14612;BME280;7392;52.078;11.650;2023-02-16T00:14:06;101676.34;;;-0.80;100.00
14612;BME280;7392;52.078;11.650;2023-02-16T00:16:35;101690.09;;;-0.82;100.00
14612;BME280;7392;52.078;11.650;2023-02-16T00:19:14;101672.69;;;-0.83;100.00
14612;BME280;7392;52.078;11.650;2023-02-16T00:21:45;101681.28;;;-0.84;100.00
14612;BME280;7392;52.078;11.650;2023-02-16T00:24:13;101675.19;;;-0.85;100.00
14612;BME280;7392;52.078;11.650;2023-02-16T00:26:41;101675.28;;;-0.83;100.00
14612;BME280;7392;52.078;11.650;2023-02-16T00:29:11;101677.91;;;-0.83;100.00
14612;BME280;7392;52.078;11.650;2023-02-16T00:31:40;101680.41;;;-0.85;100.00
14612;BME280;7392;52.078;11.650;2023-02-16T00:34:23;101680.41;;;-0.85;100.00
14612;BME280;7392;52.078;11.650;2023-02-16T00:36:54;101678.69;;;-0.84;100.00
14612;BME280;7392;52.078;11.650;2023-02-16T00:39:23;101681.28;;;-0.84;100.00
14612;BME280;7392;52.078;11.650;2023-02-16T00:41:52;101668.34;;;-0.83;100.00
14612;BME280;7392;52.078;11.650;2023-02-16T00:44:26;101670.16;;;-0.82;100.00
14612;BME280;7392;52.078;11.650;2023-02-16T00:46:56;101668.34;;;-0.83;100.00
14612;BME280;7392;52.078;11.650;2023-02-16T00:49:24;101666.63;;;-0.82;100.00
14612;BME280;7392;52.078;11.650;2023-02-16T00:51:53;101661.31;;;-0.84;100.00
14612;BME280;7392;52.078;11.650;2023-02-16T00:54:21;101670.97;;;-0.83;100.00
14612;BME280;7392;52.078;11.650;2023-02-16T00:56:49;101667.38;;;-0.85;100.00
14612;BME280;7392;52.078;11.650;2023-02-16T00:59:19;101659.44;;;-0.86;100.00
14612;BME280;7392;52.078;11.650;2023-02-16T01:01:48;101667.38;;;-0.85;100.00
14612;BME280;7392;52.078;11.650;2023-02-16T01:04:21;101663.13;;;-0.83;100.00
14612;BME280;7392;52.078;11.650;2023-02-16T01:06:50;101660.44;;;-0.84;100.00
14612;BME280;7392;52.078;11.650;2023-02-16T01:09:36;101657.81;;;-0.84;100.00
14612;BME280;7392;52.078;11.650;2023-02-16T01:12:22;101659.63;;;-0.83;100.00
14612;BME280;7392;52.078;11.650;2023-02-16T01:14:51;101651.91;;;-0.82;100.00
14612;BME280;7392;52.078;11.650;2023-02-16T01:17:21;101657.13;;;-0.82;100.00
14612;BME280;7392;52.078;11.650;2023-02-16T01:19:52;101650.97;;;-0.82;100.00
14612;BME280;7392;52.078;11.650;2023-02-16T01:22:19;101650.97;;;-0.82;100.00
14612;BME280;7392;52.078;11.650;2023-02-16T01:24:48;101658.88;;;-0.81;100.00
14612;BME280;7392;52.078;11.650;2023-02-16T01:27:16;101650.97;;;-0.82;100.00
14612;BME280;7392;52.078;11.650;2023-02-16T01:29:44;101649.28;;;-0.82;100.00
14612;BME280;7392;52.078;11.650;2023-02-16T01:32:13;101658.00;;;-0.81;100.00
14612;BME280;7392;52.078;11.650;2023-02-16T01:34:41;101658.78;;;-0.82;100.00
14612;BME280;7392;52.078;11.650;2023-02-16T01:37:13;101651.72;;;-0.85;100.00
14612;BME280;7392;52.078;11.650;2023-02-16T01:39:42;101652.69;;;-0.83;100.00
14612;BME280;7392;52.078;11.650;2023-02-16T01:42:19;101649.28;;;-0.82;100.00
14612;BME280;7392;52.078;11.650;2023-02-16T01:44:51;101649.28;;;-0.82;100.00
14612;BME280;7392;52.078;11.650;2023-02-16T01:47:30;101651.25;;;-0.78;100.00
14612;BME280;7392;52.078;11.650;2023-02-16T01:50:11;101650.53;;;-0.75;100.00
14612;BME280;7392;52.078;11.650;2023-02-16T01:52:42;101648.00;;;-0.73;100.00
14612;BME280;7392;52.078;11.650;2023-02-16T01:55:15;101645.38;;;-0.73;100.00
14612;BME280;7392;52.078;11.650;2023-02-16T01:57:48;101643.69;;;-0.73;100.00
14612;BME280;7392;52.078;11.650;2023-02-16T02:00:23;101648.91;;;-0.73;100.00
14612;BME280;7392;52.078;11.650;2023-02-16T02:02:54;101653.22;;;-0.73;100.00
14612;BME280;7392;52.078;11.650;2023-02-16T02:05:45;101653.06;;;-0.77;100.00
14612;BME280;7392;52.078;11.650;2023-02-16T02:08:17;101646.03;;;-0.78;100.00
14612;BME280;7392;52.078;11.650;2023-02-16T02:10:53;101647.66;;;-0.80;100.00
14612;BME280;7392;52.078;11.650;2023-02-16T02:13:32;101645.75;;;-0.82;100.00
14612;BME280;7392;52.078;11.650;2023-02-16T02:16:04;101642.25;;;-0.83;100.00
14612;BME280;7392;52.078;11.650;2023-02-16T02:18:33;101635.16;;;-0.85;100.00
14612;BME280;7392;52.078;11.650;2023-02-16T02:21:15;101627.25;;;-0.87;100.00
14612;BME280;7392;52.078;11.650;2023-02-16T02:24:31;101634.25;;;-0.86;100.00
14612;BME280;7392;52.078;11.650;2023-02-16T02:27:11;101622.81;;;-0.88;100.00
14612;BME280;7392;52.078;11.650;2023-02-16T02:30:00;101623.72;;;-0.87;100.00
14612;BME280;7392;52.078;11.650;2023-02-16T02:32:40;101619.44;;;-0.87;100.00
14612;BME280;7392;52.078;11.650;2023-02-16T02:35:25;101623.00;;;-0.85;100.00
14612;BME280;7392;52.078;11.650;2023-02-16T02:37:56;101620.41;;;-0.85;100.00
14612;BME280;7392;52.078;11.650;2023-02-16T02:40:35;101614.34;;;-0.84;100.00
14612;BME280;7392;52.078;11.650;2023-02-16T02:43:13;101617.78;;;-0.85;100.00
14612;BME280;7392;52.078;11.650;2023-02-16T02:45:46;101611.69;;;-0.85;100.00
14612;BME280;7392;52.078;11.650;2023-02-16T02:48:15;101610.75;;;-0.86;100.00
14612;BME280;7392;52.078;11.650;2023-02-16T02:50:46;101605.47;;;-0.87;100.00
14612;BME280;7392;52.078;11.650;2023-02-16T02:53:32;101605.53;;;-0.86;100.00
14612;BME280;7392;52.078;11.650;2023-02-16T02:56:03;101601.25;;;-0.85;100.00
14612;BME280;7392;52.078;11.650;2023-02-16T02:58:53;101599.44;;;-0.86;100.00
14612;BME280;7392;52.078;11.650;2023-02-16T03:01:43;101602.84;;;-0.87;100.00
14612;BME280;7392;52.078;11.650;2023-02-16T03:04:16;101602.75;;;-0.89;100.00
14612;BME280;7392;52.078;11.650;2023-02-16T03:06:47;101610.53;;;-0.90;100.00
14612;BME280;7392;52.078;11.650;2023-02-16T03:09:16;101606.00;;;-0.93;100.00
14612;BME280;7392;52.078;11.650;2023-02-16T03:11:48;101607.72;;;-0.93;100.00
14612;BME280;7392;52.078;11.650;2023-02-16T03:14:36;101610.16;;;-0.97;100.00
14612;BME280;7392;52.078;11.650;2023-02-16T03:17:10;101603.88;;;-1.00;100.00
14612;BME280;7392;52.078;11.650;2023-02-16T03:19:55;101610.69;;;-1.02;100.00
14612;BME280;7392;52.078;11.650;2023-02-16T03:22:43;101603.69;;;-1.03;100.00
14612;BME280;7392;52.078;11.650;2023-02-16T03:25:30;101601.06;;;-1.03;100.00
14612;BME280;7392;52.078;11.650;2023-02-16T03:28:17;101606.19;;;-1.05;100.00
14612;BME280;7392;52.078;11.650;2023-02-16T03:31:05;101610.53;;;-1.05;100.00
14612;BME280;7392;52.078;11.650;2023-02-16T03:33:33;101604.31;;;-1.07;100.00
14612;BME280;7392;52.078;11.650;2023-02-16T03:36:03;101615.56;;;-1.08;100.00
14612;BME280;7392;52.078;11.650;2023-02-16T03:38:31;101605.13;;;-1.08;100.00
14612;BME280;7392;52.078;11.650;2023-02-16T03:40:59;101617.25;;;-1.09;100.00
14612;BME280;7392;52.078;11.650;2023-02-16T03:43:28;101619.03;;;-1.08;100.00
14612;BME280;7392;52.078;11.650;2023-02-16T03:45:55;101623.38;;;-1.08;100.00
14612;BME280;7392;52.078;11.650;2023-02-16T03:48:24;101614.75;;;-1.07;100.00
14612;BME280;7392;52.078;11.650;2023-02-16T03:50:52;101619.13;;;-1.06;100.00
14612;BME280;7392;52.078;11.650;2023-02-16T03:53:20;101614.66;;;-1.09;100.00
14612;BME280;7392;52.078;11.650;2023-02-16T03:55:48;101612.06;;;-1.09;100.00
14612;BME280;7392;52.078;11.650;2023-02-16T03:58:17;101610.34;;;-1.08;100.00
14612;BME280;7392;52.078;11.650;2023-02-16T04:00:46;101596.66;;;-1.04;100.00
14612;BME280;7392;52.078;11.650;2023-02-16T04:03:14;101598.66;;;-1.00;100.00
14612;BME280;7392;52.078;11.650;2023-02-16T04:05:43;101597.03;;;-0.98;100.00
14612;BME280;7392;52.078;11.650;2023-02-16T04:08:11;101597.81;;;-0.99;100.00
14612;BME280;7392;52.078;11.650;2023-02-16T04:10:39;101608.34;;;-0.98;100.00
14612;BME280;7392;52.078;11.650;2023-02-16T04:13:07;101610.94;;;-0.98;100.00
14612;BME280;7392;52.078;11.650;2023-02-16T04:15:34;101607.44;;;-0.98;100.00
14612;BME280;7392;52.078;11.650;2023-02-16T04:18:02;101620.50;;;-0.98;100.00
14612;BME280;7392;52.078;11.650;2023-02-16T04:20:32;101622.91;;;-1.01;100.00
14612;BME280;7392;52.078;11.650;2023-02-16T04:23:01;101625.63;;;-1.00;100.00
14612;BME280;7392;52.078;11.650;2023-02-16T04:25:29;101620.41;;;-1.00;100.00
14612;BME280;7392;52.078;11.650;2023-02-16T04:27:57;101621.22;;;-1.01;100.00
14612;BME280;7392;52.078;11.650;2023-02-16T04:30:27;101617.69;;;-1.01;100.00
14612;BME280;7392;52.078;11.650;2023-02-16T04:32:56;101619.31;;;-1.03;100.00
14612;BME280;7392;52.078;11.650;2023-02-16T04:35:24;101611.41;;;-1.05;100.00
14612;BME280;7392;52.078;11.650;2023-02-16T04:37:51;101611.22;;;-1.08;100.00
14612;BME280;7392;52.078;11.650;2023-02-16T04:40:20;101609.34;;;-1.10;100.00
14612;BME280;7392;52.078;11.650;2023-02-16T04:42:48;101611.06;;;-1.11;100.00
14612;BME280;7392;52.078;11.650;2023-02-16T04:45:16;101611.78;;;-1.14;100.00
14612;BME280;7392;52.078;11.650;2023-02-16T04:47:44;101613.59;;;-1.13;100.00
14612;BME280;7392;52.078;11.650;2023-02-16T04:50:11;101619.59;;;-1.14;100.00
14612;BME280;7392;52.078;11.650;2023-02-16T04:52:39;101615.13;;;-1.16;100.00
14612;BME280;7392;52.078;11.650;2023-02-16T04:55:07;101614.09;;;-1.18;100.00
14612;BME280;7392;52.078;11.650;2023-02-16T04:57:38;101606.28;;;-1.18;100.00
14612;BME280;7392;52.078;11.650;2023-02-16T05:00:08;101609.63;;;-1.21;100.00
14612;BME280;7392;52.078;11.650;2023-02-16T05:02:37;101612.13;;;-1.22;100.00
14612;BME280;7392;52.078;11.650;2023-02-16T05:05:05;101615.53;;;-1.23;100.00
14612;BME280;7392;52.078;11.650;2023-02-16T05:07:33;101609.25;;;-1.27;100.00
14612;BME280;7392;52.078;11.650;2023-02-16T05:10:01;101604.84;;;-1.28;100.00
14612;BME280;7392;52.078;11.650;2023-02-16T05:12:29;101609.16;;;-1.28;100.00
14612;BME280;7392;52.078;11.650;2023-02-16T05:15:16;101605.47;;;-1.32;100.00
14612;BME280;7392;52.078;11.650;2023-02-16T05:17:44;101608.06;;;-1.32;100.00
14612;BME280;7392;52.078;11.650;2023-02-16T05:20:12;101609.88;;;-1.31;100.00
14612;BME280;7392;52.078;11.650;2023-02-16T05:22:39;101603.59;;;-1.35;100.00
14612;BME280;7392;52.078;11.650;2023-02-16T05:25:08;101618.16;;;-1.38;100.00
14612;BME280;7392;52.078;11.650;2023-02-16T05:27:36;101615.25;;;-1.43;100.00
14612;BME280;7392;52.078;11.650;2023-02-16T05:30:05;101615.94;;;-1.45;100.00
14612;BME280;7392;52.078;11.650;2023-02-16T05:32:34;101611.47;;;-1.48;100.00
14612;BME280;7392;52.078;11.650;2023-02-16T05:35:02;101610.28;;;-1.53;100.00
14612;BME280;7392;52.078;11.650;2023-02-16T05:37:29;101605.78;;;-1.56;100.00
14612;BME280;7392;52.078;11.650;2023-02-16T05:39:57;101610.75;;;-1.60;100.00
14612;BME280;7392;52.078;11.650;2023-02-16T05:42:25;101608.81;;;-1.63;100.00
14612;BME280;7392;52.078;11.650;2023-02-16T05:44:52;101610.44;;;-1.65;100.00
14612;BME280;7392;52.078;11.650;2023-02-16T05:47:20;101609.56;;;-1.65;100.00
14612;BME280;7392;52.078;11.650;2023-02-16T05:49:49;101604.16;;;-1.68;100.00
14612;BME280;7392;52.078;11.650;2023-02-16T05:52:17;101607.56;;;-1.70;100.00
14612;BME280;7392;52.078;11.650;2023-02-16T05:54:44;101605.88;;;-1.69;100.00
14612;BME280;7392;52.078;11.650;2023-02-16T05:57:12;101605.94;;;-1.67;100.00
14612;BME280;7392;52.078;11.650;2023-02-16T05:59:40;101599.84;;;-1.68;100.00
14612;BME280;7392;52.078;11.650;2023-02-16T06:02:07;101606.66;;;-1.70;100.00
14612;BME280;7392;52.078;11.650;2023-02-16T06:04:35;101602.25;;;-1.71;100.00
14612;BME280;7392;52.078;11.650;2023-02-16T06:07:05;101598.56;;;-1.75;100.00
14612;BME280;7392;52.078;11.650;2023-02-16T06:09:32;101599.38;;;-1.76;100.00
14612;BME280;7392;52.078;11.650;2023-02-16T06:12:00;101605.38;;;-1.77;100.00
14612;BME280;7392;52.078;11.650;2023-02-16T06:14:28;101605.19;;;-1.80;100.00
14612;BME280;7392;52.078;11.650;2023-02-16T06:16:55;101608.63;;;-1.81;100.00
14612;BME280;7392;52.078;11.650;2023-02-16T06:19:24;101609.50;;;-1.80;100.00
14612;BME280;7392;52.078;11.650;2023-02-16T06:21:51;101608.72;;;-1.79;100.00
14612;BME280;7392;52.078;11.650;2023-02-16T06:24:20;101607.91;;;-1.78;100.00
14612;BME280;7392;52.078;11.650;2023-02-16T06:26:48;101611.31;;;-1.79;100.00
14612;BME280;7392;52.078;11.650;2023-02-16T06:29:16;101605.91;;;-1.82;100.00
14612;BME280;7392;52.078;11.650;2023-02-16T06:31:43;101606.00;;;-1.81;100.00
14612;BME280;7392;52.078;11.650;2023-02-16T06:34:11;101605.00;;;-1.83;100.00
14612;BME280;7392;52.078;11.650;2023-02-16T06:36:39;101600.50;;;-1.85;100.00
14612;BME280;7392;52.078;11.650;2023-02-16T06:39:08;101603.03;;;-1.87;100.00
14612;BME280;7392;52.078;11.650;2023-02-16T06:41:37;101598.59;;;-1.88;100.00
14612;BME280;7392;52.078;11.650;2023-02-16T06:44:08;101594.13;;;-1.91;100.00
14612;BME280;7392;52.078;11.650;2023-02-16T06:46:37;101605.34;;;-1.92;100.00
14612;BME280;7392;52.078;11.650;2023-02-16T06:49:05;101600.03;;;-1.93;100.00
14612;BME280;7392;52.078;11.650;2023-02-16T06:51:33;101600.84;;;-1.94;100.00
14612;BME280;7392;52.078;11.650;2023-02-16T06:54:01;101601.63;;;-1.95;100.00
14612;BME280;7392;52.078;11.650;2023-02-16T06:56:29;101606.84;;;-1.95;100.00
14612;BME280;7392;52.078;11.650;2023-02-16T06:58:58;101612.88;;;-1.96;100.00
14612;BME280;7392;52.078;11.650;2023-02-16T07:01:26;101602.38;;;-1.98;100.00
14612;BME280;7392;52.078;11.650;2023-02-16T07:03:55;101605.88;;;-1.97;100.00
14612;BME280;7392;52.078;11.650;2023-02-16T07:06:24;101621.50;;;-1.97;100.00
14612;BME280;7392;52.078;11.650;2023-02-16T07:08:52;101624.88;;;-1.98;100.00
14612;BME280;7392;52.078;11.650;2023-02-16T07:11:20;101624.00;;;-1.99;100.00
14612;BME280;7392;52.078;11.650;2023-02-16T07:13:48;101623.91;;;-2.00;100.00
14612;BME280;7392;52.078;11.650;2023-02-16T07:16:17;101623.00;;;-2.01;100.00
14612;BME280;7392;52.078;11.650;2023-02-16T07:18:45;101627.38;;;-2.00;100.00
14612;BME280;7392;52.078;11.650;2023-02-16T07:21:13;101638.53;;;-2.02;100.00
14612;BME280;7392;52.078;11.650;2023-02-16T07:23:41;101634.09;;;-2.03;100.00
14612;BME280;7392;52.078;11.650;2023-02-16T07:26:09;101636.72;;;-2.03;100.00
14612;BME280;7392;52.078;11.650;2023-02-16T07:28:36;101627.13;;;-2.04;100.00
14612;BME280;7392;52.078;11.650;2023-02-16T07:31:06;101634.00;;;-2.05;100.00
14612;BME280;7392;52.078;11.650;2023-02-16T07:33:36;101629.72;;;-2.04;100.00
14612;BME280;7392;52.078;11.650;2023-02-16T07:36:05;101622.81;;;-2.04;100.00
14612;BME280;7392;52.078;11.650;2023-02-16T07:38:33;101632.44;;;-2.03;100.00
14612;BME280;7392;52.078;11.650;2023-02-16T07:41:01;101622.13;;;-2.01;100.00
14612;BME280;7392;52.078;11.650;2023-02-16T07:43:32;101623.19;;;-1.98;100.00
14612;BME280;7392;52.078;11.650;2023-02-16T07:46:00;101625.09;;;-1.95;100.00
14612;BME280;7392;52.078;11.650;2023-02-16T07:48:28;101627.88;;;-1.92;100.00
14612;BME280;7392;52.078;11.650;2023-02-16T07:50:57;101619.63;;;-1.85;100.00
14612;BME280;7392;52.078;11.650;2023-02-16T07:53:25;101614.81;;;-1.79;100.00
14612;BME280;7392;52.078;11.650;2023-02-16T07:55:53;101619.50;;;-1.73;100.00
14612;BME280;7392;52.078;11.650;2023-02-16T07:58:22;101612.97;;;-1.66;100.00
14612;BME280;7392;52.078;11.650;2023-02-16T08:00:56;101610.84;;;-1.59;100.00
14612;BME280;7392;52.078;11.650;2023-02-16T08:03:24;101601.06;;;-1.48;100.00
14612;BME280;7392;52.078;11.650;2023-02-16T08:05:51;101619.03;;;-1.38;100.00
14612;BME280;7392;52.078;11.650;2023-02-16T08:08:20;101623.63;;;-1.34;100.00
14612;BME280;7392;52.078;11.650;2023-02-16T08:10:48;101616.06;;;-1.29;100.00
14612;BME280;7392;52.078;11.650;2023-02-16T08:13:16;101611.94;;;-1.25;100.00
14612;BME280;7392;52.078;11.650;2023-02-16T08:15:44;101615.81;;;-1.19;100.00
14612;BME280;7392;52.078;11.650;2023-02-16T08:18:11;101605.75;;;-1.13;100.00
14612;BME280;7392;52.078;11.650;2023-02-16T08:20:39;101610.69;;;-1.02;100.00
14612;BME280;7392;52.078;11.650;2023-02-16T08:23:28;101600.88;;;-0.91;100.00
14612;BME280;7392;52.078;11.650;2023-02-16T08:25:57;101604.94;;;-0.82;100.00
14612;BME280;7392;52.078;11.650;2023-02-16T08:28:25;101607.16;;;-0.73;100.00
14612;BME280;7392;52.078;11.650;2023-02-16T08:30:54;101604.28;;;-0.63;100.00
14612;BME280;7392;52.078;11.650;2023-02-16T08:33:21;101603.97;;;-0.52;100.00
14612;BME280;7392;52.078;11.650;2023-02-16T08:35:50;101601.88;;;-0.43;100.00
14612;BME280;7392;52.078;11.650;2023-02-16T08:38:18;101612.84;;;-0.34;100.00
14612;BME280;7392;52.078;11.650;2023-02-16T08:40:48;101613.44;;;-0.23;100.00
14612;BME280;7392;52.078;11.650;2023-02-16T08:43:16;101613.84;;;-0.15;100.00
14612;BME280;7392;52.078;11.650;2023-02-16T08:45:44;101610.03;;;-0.06;100.00
14612;BME280;7392;52.078;11.650;2023-02-16T08:48:13;101609.06;;;0.09;100.00
14612;BME280;7392;52.078;11.650;2023-02-16T08:50:42;101602.06;;;0.24;100.00
14612;BME280;7392;52.078;11.650;2023-02-16T08:53:12;101593.22;;;0.39;100.00
14612;BME280;7392;52.078;11.650;2023-02-16T08:55:40;101601.88;;;0.54;100.00
14612;BME280;7392;52.078;11.650;2023-02-16T08:58:09;101593.16;;;0.71;100.00
14612;BME280;7392;52.078;11.650;2023-02-16T09:00:37;101603.78;;;0.91;100.00
14612;BME280;7392;52.078;11.650;2023-02-16T09:03:05;101608.03;;;1.07;100.00
14612;BME280;7392;52.078;11.650;2023-02-16T09:05:33;101601.03;;;1.24;100.00
14612;BME280;7392;52.078;11.650;2023-02-16T09:08:00;101609.78;;;1.42;100.00
14612;BME280;7392;52.078;11.650;2023-02-16T09:10:28;101607.03;;;1.57;100.00
14612;BME280;7392;52.078;11.650;2023-02-16T09:12:56;101600.63;;;1.70;100.00
14612;BME280;7392;52.078;11.650;2023-02-16T09:15:25;101609.00;;;1.81;100.00
14612;BME280;7392;52.078;11.650;2023-02-16T09:17:53;101599.16;;;1.95;100.00
14612;BME280;7392;52.078;11.650;2023-02-16T09:20:20;101604.44;;;2.14;100.00
14612;BME280;7392;52.078;11.650;2023-02-16T09:22:49;101608.78;;;2.33;100.00
14612;BME280;7392;52.078;11.650;2023-02-16T09:25:16;101607.25;;;2.58;100.00
14612;BME280;7392;52.078;11.650;2023-02-16T09:27:44;101604.03;;;2.85;100.00
14612;BME280;7392;52.078;11.650;2023-02-16T09:30:12;101613.06;;;3.12;100.00
14612;BME280;7392;52.078;11.650;2023-02-16T09:32:41;101613.97;;;3.34;100.00
14612;BME280;7392;52.078;11.650;2023-02-16T09:35:09;101617.41;;;3.54;100.00
14612;BME280;7392;52.078;11.650;2023-02-16T09:37:37;101614.59;;;3.72;100.00
14612;BME280;7392;52.078;11.650;2023-02-16T09:40:06;101611.03;;;3.92;100.00
14612;BME280;7392;52.078;11.650;2023-02-16T09:42:46;101615.44;;;4.16;100.00
14612;BME280;7392;52.078;11.650;2023-02-16T09:45:18;101614.56;;;4.40;100.00
14612;BME280;7392;52.078;11.650;2023-02-16T09:47:50;101616.13;;;4.59;100.00
14612;BME280;7392;52.078;11.650;2023-02-16T09:50:21;101612.53;;;4.81;100.00
14612;BME280;7392;52.078;11.650;2023-02-16T09:53:19;101611.59;;;5.04;100.00
14612;BME280;7392;52.078;11.650;2023-02-16T09:55:53;101615.69;;;5.22;100.00
14612;BME280;7392;52.078;11.650;2023-02-16T09:58:29;101613.50;;;5.36;100.00
14612;BME280;7392;52.078;11.650;2023-02-16T10:01:02;101611.41;;;5.53;100.00
14612;BME280;7392;52.078;11.650;2023-02-16T10:03:49;101607.72;;;5.75;100.00
14612;BME280;7392;52.078;11.650;2023-02-16T10:06:27;101599.63;;;5.97;100.00
14612;BME280;7392;52.078;11.650;2023-02-16T10:08:58;101603.88;;;6.21;100.00
14612;BME280;7392;52.078;11.650;2023-02-16T10:11:31;101603.56;;;6.42;100.00
14612;BME280;7392;52.078;11.650;2023-02-16T10:14:07;101604.09;;;6.61;100.00
14612;BME280;7392;52.078;11.650;2023-02-16T10:16:38;101603.75;;;6.80;100.00
14612;BME280;7392;52.078;11.650;2023-02-16T10:19:17;101590.03;;;6.93;100.00
14612;BME280;7392;52.078;11.650;2023-02-16T10:21:50;101603.56;;;7.06;100.00
14612;BME280;7392;52.078;11.650;2023-02-16T10:24:20;101594.09;;;7.16;99.58
14612;BME280;7392;52.078;11.650;2023-02-16T10:26:52;101595.22;;;7.25;98.23
14612;BME280;7392;52.078;11.650;2023-02-16T10:29:25;101592.78;;;7.33;96.48
14612;BME280;7392;52.078;11.650;2023-02-16T10:32:00;101585.00;;;7.39;93.96
14612;BME280;7392;52.078;11.650;2023-02-16T10:34:44;101580.94;;;7.54;92.62
14612;BME280;7392;52.078;11.650;2023-02-16T10:37:28;101573.25;;;7.64;91.20
14612;BME280;7392;52.078;11.650;2023-02-16T10:40:21;101577.03;;;7.76;90.21
14612;BME280;7392;52.078;11.650;2023-02-16T10:42:56;101568.56;;;7.92;89.88
14612;BME280;7392;52.078;11.650;2023-02-16T10:45:29;101576.00;;;8.09;90.09
14612;BME280;7392;52.078;11.650;2023-02-16T10:47:59;101575.34;;;8.20;89.21
14612;BME280;7392;52.078;11.650;2023-02-16T10:50:31;101578.22;;;8.31;87.79
14612;BME280;7392;52.078;11.650;2023-02-16T10:53:03;101575.78;;;8.42;86.99
14612;BME280;7392;52.078;11.650;2023-02-16T10:55:33;101578.59;;;8.48;85.94
14612;BME280;7392;52.078;11.650;2023-02-16T10:58:01;101572.47;;;8.51;83.62
14612;BME280;7392;52.078;11.650;2023-02-16T11:00:41;101575.28;;;8.60;82.83
14612;BME280;7392;52.078;11.650;2023-02-16T11:03:12;101572.00;;;8.73;83.39
14612;BME280;7392;52.078;11.650;2023-02-16T11:05:42;101565.06;;;8.80;82.13
14612;BME280;7392;52.078;11.650;2023-02-16T11:08:10;101554.63;;;8.89;81.96
14612;BME280;7392;52.078;11.650;2023-02-16T11:10:42;101557.44;;;8.98;81.29
14612;BME280;7392;52.078;11.650;2023-02-16T11:13:23;101559.38;;;9.09;80.06
14612;BME280;7392;52.078;11.650;2023-02-16T11:15:54;101560.47;;;9.22;79.90
14612;BME280;7392;52.078;11.650;2023-02-16T11:18:29;101549.19;;;9.35;79.74
14612;BME280;7392;52.078;11.650;2023-02-16T11:21:00;101544.19;;;9.53;79.64
14612;BME280;7392;52.078;11.650;2023-02-16T11:23:30;101545.25;;;9.68;77.99
14612;BME280;7392;52.078;11.650;2023-02-16T11:26:00;101548.06;;;9.80;77.30
14612;BME280;7392;52.078;11.650;2023-02-16T11:28:32;101550.94;;;9.96;76.04
14612;BME280;7392;52.078;11.650;2023-02-16T11:31:12;101548.41;;;10.05;75.09
14612;BME280;7392;52.078;11.650;2023-02-16T11:33:53;101538.03;;;10.23;75.86
14612;BME280;7392;52.078;11.650;2023-02-16T11:36:29;101542.66;;;10.40;74.12
14612;BME280;7392;52.078;11.650;2023-02-16T11:39:00;101556.94;;;10.50;72.35
14612;BME280;7392;52.078;11.650;2023-02-16T11:41:29;101547.25;;;10.56;70.43
14612;BME280;7392;52.078;11.650;2023-02-16T11:44:00;101546.53;;;10.70;70.27
14612;BME280;7392;52.078;11.650;2023-02-16T11:46:36;101542.28;;;10.89;70.80
14612;BME280;7392;52.078;11.650;2023-02-16T11:49:30;101534.47;;;11.12;70.63
14612;BME280;7392;52.078;11.650;2023-02-16T11:52:00;101533.72;;;11.28;69.91
14612;BME280;7392;52.078;11.650;2023-02-16T11:54:35;101525.75;;;11.30;67.72
14612;BME280;7392;52.078;11.650;2023-02-16T11:57:24;101528.53;;;11.45;68.49
14612;BME280;7392;52.078;11.650;2023-02-16T11:59:54;101518.88;;;11.61;68.30
14612;BME280;7392;52.078;11.650;2023-02-16T12:02:48;101517.19;;;11.74;68.15
14612;BME280;7392;52.078;11.650;2023-02-16T12:05:34;101524.31;;;11.84;67.44
14612;BME280;7392;52.078;11.650;2023-02-16T12:08:26;101527.00;;;11.89;66.71
14612;BME280;7392;52.078;11.650;2023-02-16T12:11:07;101527.88;;;11.85;64.89
14612;BME280;7392;52.078;11.650;2023-02-16T12:13:42;101523.53;;;11.97;65.70
14612;BME280;7392;52.078;11.650;2023-02-16T12:16:24;101520.94;;;12.21;66.15
14612;BME280;7392;52.078;11.650;2023-02-16T12:19:05;101520.97;;;12.33;65.00
14612;BME280;7392;52.078;11.650;2023-02-16T12:21:36;101521.91;;;12.46;64.73
14612;BME280;7392;52.078;11.650;2023-02-16T12:24:19;101519.28;;;12.58;63.15
14612;BME280;7392;52.078;11.650;2023-02-16T12:26:56;101513.94;;;12.69;62.75
14612;BME280;7392;52.078;11.650;2023-02-16T12:29:42;101514.84;;;12.69;61.93
14612;BME280;7392;52.078;11.650;2023-02-16T12:32:27;101509.53;;;12.72;60.58
14612;BME280;7392;52.078;11.650;2023-02-16T12:35:08;101497.97;;;12.67;59.11
14612;BME280;7392;52.078;11.650;2023-02-16T12:37:46;101502.41;;;12.61;58.97
14612;BME280;7392;52.078;11.650;2023-02-16T12:40:24;101497.06;;;12.64;59.96
14612;BME280;7392;52.078;11.650;2023-02-16T12:43:00;101492.63;;;12.60;59.62
14612;BME280;7392;52.078;11.650;2023-02-16T12:45:32;101497.06;;;12.56;59.25
14612;BME280;7392;52.078;11.650;2023-02-16T12:48:11;101494.38;;;12.48;59.79
14612;BME280;7392;52.078;11.650;2023-02-16T12:50:41;101491.72;;;12.53;61.03
14612;BME280;7392;52.078;11.650;2023-02-16T12:53:18;101491.75;;;12.59;61.52
14612;BME280;7392;52.078;11.650;2023-02-16T12:55:57;101478.41;;;12.64;61.43
14612;BME280;7392;52.078;11.650;2023-02-16T12:58:29;101477.53;;;12.65;61.29
14612;BME280;7392;52.078;11.650;2023-02-16T13:01:00;101482.88;;;12.66;61.57
14612;BME280;7392;52.078;11.650;2023-02-16T13:03:33;101464.19;;;12.65;61.46
14612;BME280;7392;52.078;11.650;2023-02-16T13:06:16;101463.34;;;12.67;62.16
14612;BME280;7392;52.078;11.650;2023-02-16T13:08:50;101464.22;;;12.72;61.88